createdAt,value
2022-08-07T00:02:37.155Z,21.60
2022-08-07T00:07:27.370Z,21.60
2022-08-07T00:12:31.745Z,21.60
2022-08-07T00:17:37.114Z,21.50
2022-08-07T00:22:42.701Z,21.50
2022-08-07T00:27:56.504Z,21.40
2022-08-07T00:33:02.681Z,21.40
2022-08-07T00:38:06.534Z,21.30
2022-08-07T00:43:59.621Z,21.20
2022-08-07T00:48:35.745Z,21.20
2022-08-07T00:53:50.404Z,21.10
2022-08-07T00:58:59.137Z,21.10
2022-08-07T01:04:07.419Z,21.10
2022-08-07T01:09:11.502Z,21.00
2022-08-07T01:14:36.966Z,21.00
2022-08-07T01:19:44.981Z,21.00
2022-08-07T01:24:59.837Z,20.90
2022-08-07T01:30:03.926Z,20.90
2022-08-07T01:35:09.154Z,20.90
2022-08-07T01:40:15.673Z,20.90
2022-08-07T01:45:22.919Z,20.90
2022-08-07T01:50:31.139Z,20.90
2022-08-07T01:55:39.842Z,20.90
2022-08-07T02:00:49.044Z,20.90
2022-08-07T02:06:01.078Z,20.90
2022-08-07T02:11:06.577Z,20.80
2022-08-07T02:16:14.717Z,20.80
2022-08-07T02:21:20.917Z,20.80
2022-08-07T02:26:33.974Z,20.80
2022-08-07T02:31:40.395Z,20.70
2022-08-07T02:36:45.343Z,20.70
2022-08-07T02:41:54.759Z,20.60
2022-08-07T02:46:59.527Z,20.50
2022-08-07T02:52:10.022Z,20.40
2022-08-07T02:57:20.469Z,20.40
2022-08-07T03:02:25.873Z,20.30
2022-08-07T03:08:05.341Z,20.20
2022-08-07T03:12:57.293Z,20.20
2022-08-07T03:18:03.428Z,20.20
2022-08-07T03:23:18.885Z,20.10
2022-08-07T03:28:38.024Z,20.10
2022-08-07T03:33:42.467Z,20.00
2022-08-07T03:38:46.974Z,20.00
2022-08-07T03:43:56.733Z,19.90
2022-08-07T03:49:02.795Z,19.90
2022-08-07T03:54:36.485Z,19.70
2022-08-07T03:59:32.813Z,19.60
2022-08-07T04:04:36.331Z,19.50
2022-08-07T04:09:45.522Z,19.50
2022-08-07T04:14:56.243Z,19.40
2022-08-07T04:19:59.508Z,19.30
2022-08-07T04:25:08.647Z,19.30
2022-08-07T04:30:36.275Z,19.20
2022-08-07T04:35:40.779Z,19.20
2022-08-07T04:40:51.722Z,19.10
2022-08-07T04:46:08.325Z,19.00
2022-08-07T04:51:27.698Z,19.00
2022-08-07T04:58:12.230Z,18.90
2022-08-07T05:02:11.241Z,18.90
2022-08-07T05:07:30.473Z,18.90
2022-08-07T05:12:53.775Z,18.90
2022-08-07T05:18:08.819Z,18.90
2022-08-07T05:23:17.574Z,19.00
2022-08-07T05:28:26.619Z,19.00
2022-08-07T05:33:35.327Z,19.00
2022-08-07T05:39:00.867Z,19.00
2022-08-07T05:44:12.784Z,19.00
2022-08-07T05:49:18.053Z,19.00
2022-08-07T05:54:44.407Z,19.00
2022-08-07T05:59:57.971Z,19.00
2022-08-07T06:05:06.130Z,19.10
2022-08-07T06:10:15.498Z,19.20
2022-08-07T06:15:20.327Z,19.20
2022-08-07T06:20:49.913Z,19.30
2022-08-07T06:25:54.894Z,19.40
2022-08-07T06:31:00.254Z,19.50
2022-08-07T06:36:06.655Z,19.60
2022-08-07T06:42:02.123Z,19.70
2022-08-07T06:47:12.411Z,19.80
2022-08-07T06:52:31.683Z,20.00
2022-08-07T06:57:48.320Z,20.10
2022-08-07T07:03:01.144Z,20.30
2022-08-07T07:08:18.186Z,20.50
2022-08-07T07:13:55.582Z,20.70
2022-08-07T07:18:57.026Z,20.90
2022-08-07T07:24:11.033Z,21.10
2022-08-07T07:29:39.250Z,21.30
2022-08-07T07:34:46.512Z,21.50
2022-08-07T07:39:58.303Z,21.70
2022-08-07T07:45:04.680Z,21.90
2022-08-07T07:50:35.392Z,22.10
2022-08-07T07:55:37.557Z,22.20
2022-08-07T08:00:54.064Z,22.40
2022-08-07T08:05:57.778Z,22.60
2022-08-07T08:11:03.828Z,22.80
2022-08-07T08:16:12.751Z,23.00
2022-08-07T08:22:00.478Z,23.20
2022-08-07T08:27:09.669Z,23.40
2022-08-07T08:32:18.970Z,23.70
2022-08-07T08:38:01.485Z,23.90
2022-08-07T08:43:04.744Z,24.10
2022-08-07T08:48:28.461Z,24.30
2022-08-07T08:53:43.579Z,24.50
2022-08-07T08:58:57.065Z,24.70
2022-08-07T09:04:11.204Z,24.80
2022-08-07T09:09:39.122Z,24.90
2022-08-07T09:14:58.563Z,25.00
2022-08-07T09:20:34.648Z,25.20
2022-08-07T09:25:53.522Z,25.40
2022-08-07T09:31:04.821Z,25.60
2022-08-07T09:36:15.631Z,25.80
2022-08-07T09:41:36.152Z,26.00
2022-08-07T09:47:51.425Z,26.10
2022-08-07T09:52:35.423Z,26.10
2022-08-07T09:58:32.567Z,26.20
2022-08-07T10:04:05.498Z,26.30
2022-08-07T10:09:42.739Z,26.40
2022-08-07T10:15:15.504Z,26.50
2022-08-07T10:20:32.009Z,26.60
2022-08-07T10:25:55.072Z,26.70
2022-08-07T10:31:11.932Z,26.70
2022-08-07T10:36:29.709Z,26.80
2022-08-07T10:41:52.083Z,26.90
2022-08-07T10:47:03.017Z,27.00
2022-08-07T10:52:19.814Z,27.20
2022-08-07T10:57:34.637Z,27.40
2022-08-07T11:02:49.341Z,27.50
2022-08-07T11:08:06.389Z,27.70
2022-08-07T11:14:41.830Z,27.80
2022-08-07T11:18:43.856Z,27.90
2022-08-07T11:24:02.968Z,27.90
2022-08-07T11:29:12.911Z,27.90
2022-08-07T11:34:42.563Z,27.90
2022-08-07T11:40:11.920Z,27.90
2022-08-07T11:45:35.376Z,27.90
2022-08-07T11:50:58.205Z,28.00
2022-08-07T11:56:27.102Z,28.00
2022-08-07T12:01:59.498Z,28.10
2022-08-07T12:07:20.233Z,28.20
2022-08-07T12:12:37.496Z,28.30
2022-08-07T12:17:58.476Z,28.30
2022-08-07T12:23:37.434Z,28.40
2022-08-07T12:28:57.976Z,28.50
2022-08-07T12:34:04.044Z,28.60
2022-08-07T12:39:38.819Z,28.60
2022-08-07T12:44:35.833Z,28.60
2022-08-07T12:49:51.693Z,28.60
2022-08-07T12:55:05.705Z,28.70
2022-08-07T13:00:20.941Z,28.70
2022-08-07T13:06:02.550Z,28.80
2022-08-07T13:11:22.374Z,28.80
2022-08-07T13:16:36.960Z,28.80
2022-08-07T13:21:58.912Z,28.90
2022-08-07T13:27:12.948Z,28.80
2022-08-07T13:32:32.619Z,28.80
2022-08-07T13:37:55.354Z,28.80
2022-08-07T13:43:06.522Z,28.80
2022-08-07T13:48:27.431Z,28.90
2022-08-07T13:53:59.481Z,28.90
2022-08-07T13:59:05.834Z,28.90
2022-08-07T14:04:21.487Z,29.00
2022-08-07T14:10:01.509Z,29.00
2022-08-07T14:15:01.656Z,29.10
2022-08-07T14:20:41.190Z,29.10
2022-08-07T14:25:39.449Z,29.10
2022-08-07T14:30:52.228Z,29.20
2022-08-07T14:35:59.476Z,29.20
2022-08-07T14:41:14.829Z,29.20
2022-08-07T14:46:30.599Z,29.10
2022-08-07T14:52:04.656Z,29.10
2022-08-07T14:57:04.254Z,29.00
2022-08-07T15:02:34.249Z,29.00
2022-08-07T15:07:47.292Z,29.00
2022-08-07T15:12:59.278Z,29.00
2022-08-07T15:18:14.384Z,29.00
2022-08-07T15:25:15.836Z,29.00
2022-08-07T15:30:06.419Z,29.00
2022-08-07T15:34:26.237Z,28.90
2022-08-07T15:44:57.047Z,28.80
2022-08-07T15:50:06.770Z,28.70
2022-08-07T15:55:15.598Z,28.70
2022-08-07T16:00:31.967Z,28.70
2022-08-07T16:05:40.198Z,28.60
2022-08-07T16:10:48.998Z,28.60
2022-08-07T16:16:06.463Z,28.50
2022-08-07T16:21:44.171Z,28.40
2022-08-07T16:26:59.139Z,28.30
2022-08-07T16:32:06.325Z,28.20
2022-08-07T16:38:03.478Z,28.10
2022-08-07T16:43:05.069Z,28.00
2022-08-07T16:49:03.947Z,27.90
2022-08-07T16:54:32.828Z,27.90
2022-08-07T16:59:51.876Z,27.80
2022-08-07T17:06:01.504Z,27.80
2022-08-07T17:10:54.978Z,27.70
2022-08-07T17:16:06.888Z,27.80
2022-08-07T17:21:19.061Z,27.70
2022-08-07T17:26:48.206Z,27.70
2022-08-07T17:32:06.227Z,27.70
2022-08-07T17:38:06.475Z,27.60
2022-08-07T17:42:58.615Z,27.60
2022-08-07T17:48:12.795Z,27.60
2022-08-07T17:54:01.142Z,27.50
2022-08-07T17:59:06.884Z,27.50
2022-08-07T18:04:24.710Z,27.40
2022-08-07T18:09:48.239Z,27.30
2022-08-07T18:15:08.986Z,27.30
2022-08-07T18:21:09.766Z,27.20
2022-08-07T18:25:47.922Z,27.10
2022-08-07T18:30:59.846Z,27.00
2022-08-07T18:36:16.111Z,26.90
2022-08-07T18:41:45.207Z,26.90
2022-08-07T18:47:00.185Z,26.90
2022-08-07T18:52:37.613Z,26.90
2022-08-07T18:58:18.448Z,26.90
2022-08-07T19:03:35.451Z,26.90
2022-08-07T19:08:59.852Z,26.80
2022-08-07T19:14:20.258Z,26.80
2022-08-07T19:19:34.032Z,26.80
2022-08-07T19:24:44.377Z,26.80
2022-08-07T19:31:05.485Z,26.70
2022-08-07T19:35:22.561Z,26.60
2022-08-07T19:40:34.824Z,26.60
2022-08-07T19:46:05.379Z,26.50
2022-08-07T19:51:19.327Z,26.40
2022-08-07T19:57:56.728Z,26.20
2022-08-07T20:01:58.032Z,26.10
2022-08-07T20:07:02.338Z,25.90
2022-08-07T20:12:31.764Z,25.80
2022-08-07T20:17:35.889Z,25.70
2022-08-07T20:22:47.097Z,25.60
2022-08-07T20:27:58.614Z,25.50
2022-08-07T20:33:05.062Z,25.40
2022-08-07T20:38:15.241Z,25.20
2022-08-07T20:43:25.955Z,25.10
2022-08-07T20:48:34.034Z,24.90
2022-08-07T20:54:04.653Z,24.80
2022-08-07T20:59:06.060Z,24.70
2022-08-07T21:04:30.773Z,24.60
2022-08-07T21:09:52.845Z,24.60
2022-08-07T21:15:06.548Z,24.60
2022-08-07T21:20:18.909Z,24.50
2022-08-07T21:25:38.739Z,24.40
2022-08-07T21:30:55.241Z,24.30
2022-08-07T21:36:12.019Z,24.20
2022-08-07T21:42:00.662Z,24.10
2022-08-07T21:47:17.214Z,24.00
2022-08-07T21:52:33.346Z,23.90
2022-08-07T21:57:52.018Z,23.90
2022-08-07T22:03:05.607Z,23.80
2022-08-07T22:08:10.685Z,23.70
2022-08-07T22:13:15.996Z,23.70
2022-08-07T22:18:25.507Z,23.60
2022-08-07T22:23:40.398Z,23.50
2022-08-07T22:28:53.358Z,23.50
2022-08-07T22:34:13.236Z,23.40
2022-08-07T22:39:28.331Z,23.40
2022-08-07T22:44:36.834Z,23.20
2022-08-07T22:50:10.851Z,23.20
2022-08-07T22:55:34.496Z,23.00
2022-08-07T23:00:46.985Z,22.80
2022-08-07T23:06:37.705Z,22.60
2022-08-07T23:11:59.387Z,22.60
2022-08-07T23:17:31.467Z,22.50
2022-08-07T23:22:52.289Z,22.50
2022-08-07T23:28:21.075Z,22.40
2022-08-07T23:34:35.852Z,22.40
2022-08-07T23:39:21.942Z,22.30
2022-08-07T23:44:41.866Z,22.30
2022-08-07T23:50:03.973Z,22.10
2022-08-07T23:55:53.449Z,22.00
